createdAt,value
2023-03-30T00:00:16.827Z,96205.06
2023-03-30T00:01:20.344Z,96129.78
2023-03-30T00:02:24.316Z,96157.59
2023-03-30T00:03:27.729Z,96020.97
2023-03-30T00:04:30.883Z,96120.19
2023-03-30T00:05:35.339Z,96055.00
2023-03-30T00:06:37.468Z,95966.66
2023-03-30T00:07:39.980Z,96256.63
2023-03-30T00:08:42.144Z,96202.44
2023-03-30T00:09:44.367Z,96029.38
2023-03-30T00:10:46.727Z,96033.50
2023-03-30T00:11:49.186Z,96191.47
2023-03-30T00:12:51.690Z,96208.22
2023-03-30T00:13:54.603Z,96075.69
2023-03-30T00:14:56.647Z,96200.06
2023-03-30T00:15:59.606Z,95993.69
2023-03-30T00:17:03.216Z,96144.34
2023-03-30T00:18:06.159Z,96000.19
2023-03-30T00:19:08.340Z,96195.75
2023-03-30T00:20:12.492Z,96200.97
2023-03-30T00:21:14.720Z,96094.94
2023-03-30T00:22:16.941Z,96083.91
2023-03-30T00:23:20.028Z,96145.38
2023-03-30T00:24:21.854Z,95945.38
2023-03-30T00:25:24.004Z,96091.41
2023-03-30T00:26:25.963Z,96214.13
2023-03-30T00:27:29.456Z,96000.44
2023-03-30T00:28:31.542Z,96205.19
2023-03-30T00:29:33.562Z,96132.84
2023-03-30T00:30:35.725Z,96020.50
2023-03-30T00:31:40.536Z,96237.97
2023-03-30T00:32:46.386Z,96004.25
2023-03-30T00:33:48.913Z,96129.19
2023-03-30T00:34:51.434Z,96034.03
2023-03-30T00:35:58.521Z,96115.38
2023-03-30T00:37:00.769Z,95964.38
2023-03-30T00:38:02.776Z,96020.97
2023-03-30T00:39:05.841Z,96193.72
2023-03-30T00:40:10.921Z,95977.75
2023-03-30T00:41:12.770Z,96047.72
2023-03-30T00:42:16.343Z,96145.84
2023-03-30T00:43:18.657Z,95990.19
2023-03-30T00:45:06.055Z,96190.00
2023-03-30T00:46:08.296Z,96100.94
2023-03-30T00:47:10.780Z,96078.25
2023-03-30T00:48:26.871Z,96206.47
2023-03-30T00:49:29.914Z,96137.13
2023-03-30T00:50:37.100Z,96025.84
2023-03-30T00:51:41.753Z,96158.47
2023-03-30T00:52:45.419Z,96182.25
2023-03-30T00:53:55.153Z,95936.84
2023-03-30T00:54:58.006Z,96056.97
2023-03-30T00:56:02.300Z,96015.94
2023-03-30T00:57:04.954Z,96065.56
2023-03-30T00:58:08.922Z,96190.78
2023-03-30T00:59:11.376Z,96085.16
2023-03-30T01:00:13.833Z,96117.19
2023-03-30T01:01:17.965Z,96170.28
2023-03-30T01:02:20.610Z,96195.66
2023-03-30T01:03:33.580Z,96035.59
2023-03-30T01:04:35.428Z,96074.66
2023-03-30T01:05:40.612Z,96187.81
2023-03-30T01:06:44.840Z,95919.47
2023-03-30T01:07:47.623Z,96154.38
2023-03-30T01:08:54.525Z,96086.72
2023-03-30T01:09:56.493Z,96113.28
2023-03-30T01:10:59.478Z,96195.25
2023-03-30T01:12:01.228Z,96104.41
2023-03-30T01:13:04.510Z,96123.00
2023-03-30T01:14:09.750Z,96149.84
2023-03-30T01:15:12.749Z,96228.97
2023-03-30T01:16:36.041Z,96194.81
2023-03-30T01:17:50.189Z,96186.34
2023-03-30T01:19:05.521Z,96189.47
2023-03-30T01:20:44.131Z,96154.31
2023-03-30T01:21:55.041Z,96182.59
2023-03-30T01:23:19.137Z,96196.25
2023-03-30T01:24:43.361Z,96184.34
2023-03-30T01:26:07.830Z,96186.69
2023-03-30T01:27:19.803Z,96181.47
2023-03-30T01:29:14.617Z,96187.91
2023-03-30T01:30:40.646Z,96190.88
2023-03-30T01:32:13.467Z,96003.22
2023-03-30T01:34:09.957Z,96192.84
2023-03-30T01:35:49.338Z,96199.34
2023-03-30T01:37:06.988Z,95893.00
2023-03-30T01:38:21.113Z,96035.84
2023-03-30T01:39:48.258Z,96202.66
2023-03-30T01:41:00.117Z,96060.25
2023-03-30T01:42:29.388Z,95958.88
2023-03-30T01:44:00.666Z,96201.47
2023-03-30T01:45:13.521Z,95944.75
2023-03-30T01:46:25.607Z,95979.44
2023-03-30T01:47:33.583Z,96246.91
2023-03-30T01:48:43.285Z,96049.53
2023-03-30T01:50:06.247Z,96046.50
2023-03-30T01:51:14.535Z,96150.50
2023-03-30T01:52:27.406Z,96031.59
2023-03-30T01:53:48.099Z,96007.09
2023-03-30T01:55:17.365Z,96084.56
2023-03-30T01:56:40.945Z,96206.41
2023-03-30T01:58:14.373Z,96003.72
2023-03-30T01:59:53.795Z,96029.84
2023-03-30T02:00:57.305Z,96136.34
2023-03-30T02:02:00.943Z,95976.66
2023-03-30T02:03:09.269Z,96040.94
2023-03-30T02:04:12.621Z,96217.59
2023-03-30T02:05:18.109Z,95974.72
2023-03-30T02:06:27.346Z,96201.81
2023-03-30T02:07:32.558Z,95936.78
2023-03-30T02:08:36.481Z,96187.56
2023-03-30T02:09:42.082Z,96041.13
2023-03-30T02:10:46.308Z,95986.47
2023-03-30T02:11:51.717Z,96228.28
2023-03-30T02:12:57.235Z,96102.31
2023-03-30T02:14:01.957Z,96034.13
2023-03-30T02:15:09.518Z,96150.81
2023-03-30T02:16:29.134Z,96135.78
2023-03-30T02:17:31.594Z,95929.44
2023-03-30T02:18:33.898Z,96235.41
2023-03-30T02:19:35.908Z,96209.25
2023-03-30T02:20:38.273Z,96010.50
2023-03-30T02:21:40.299Z,96173.69
2023-03-30T02:22:42.523Z,96012.25
2023-03-30T02:23:46.848Z,96100.56
2023-03-30T02:24:53.516Z,96116.56
2023-03-30T02:25:56.706Z,96186.00
2023-03-30T02:27:00.932Z,96113.38
2023-03-30T02:28:02.980Z,96020.56
2023-03-30T02:29:04.715Z,96213.38
2023-03-30T02:30:07.729Z,96129.94
2023-03-30T02:31:14.519Z,96163.75
2023-03-30T02:32:24.539Z,96233.94
2023-03-30T02:34:05.770Z,96164.19
2023-03-30T02:35:39.255Z,96212.59
2023-03-30T02:37:04.234Z,96206.44
2023-03-30T02:38:12.538Z,96095.81
2023-03-30T02:39:24.936Z,96183.66
2023-03-30T02:40:53.179Z,96074.97
2023-03-30T02:42:03.948Z,96227.44
2023-03-30T02:43:35.195Z,96223.38
2023-03-30T02:45:14.469Z,96215.88
2023-03-30T02:46:19.253Z,96099.28
2023-03-30T02:48:05.564Z,96219.84
2023-03-30T02:49:17.258Z,96213.88
2023-03-30T02:50:34.815Z,96227.75
2023-03-30T02:51:47.291Z,95869.34
2023-03-30T02:52:58.116Z,96226.03
2023-03-30T02:54:17.910Z,96019.50
2023-03-30T02:55:26.424Z,95974.03
2023-03-30T02:56:37.938Z,96166.97
2023-03-30T02:58:18.208Z,96209.25
2023-03-30T02:59:21.550Z,96239.75
2023-03-30T03:00:54.271Z,96213.59
2023-03-30T03:02:05.651Z,96150.97
2023-03-30T03:03:20.278Z,96218.19
2023-03-30T03:04:22.632Z,96208.53
2023-03-30T03:05:27.122Z,96194.59
2023-03-30T03:06:29.559Z,96043.66
2023-03-30T03:07:31.681Z,95987.72
2023-03-30T03:08:37.063Z,95928.13
2023-03-30T03:09:38.838Z,96250.16
2023-03-30T03:10:40.943Z,96027.28
2023-03-30T03:11:42.758Z,96227.09
2023-03-30T03:12:45.249Z,96016.13
2023-03-30T03:13:47.750Z,96001.88
2023-03-30T03:14:51.877Z,96169.81
2023-03-30T03:15:54.940Z,96222.25
2023-03-30T03:16:57.137Z,96040.41
2023-03-30T03:17:58.969Z,96210.09
2023-03-30T03:19:00.807Z,96016.06
2023-03-30T03:20:04.787Z,96132.56
2023-03-30T03:21:07.725Z,95964.34
2023-03-30T03:22:09.773Z,96198.16
2023-03-30T03:23:11.656Z,96000.28
2023-03-30T03:24:14.827Z,96005.00
2023-03-30T03:25:16.608Z,96118.19
2023-03-30T03:26:18.465Z,96167.72
2023-03-30T03:27:20.321Z,96136.91
2023-03-30T03:28:22.157Z,96226.94
2023-03-30T03:29:24.108Z,96176.97
2023-03-30T03:30:25.909Z,96133.28
2023-03-30T03:31:27.777Z,96160.81
2023-03-30T03:32:29.907Z,96152.50
2023-03-30T03:33:33.207Z,96188.00
2023-03-30T03:34:35.158Z,96152.81
2023-03-30T03:35:37.024Z,95977.38
2023-03-30T03:36:38.753Z,96147.97
2023-03-30T03:37:40.778Z,96205.91
2023-03-30T03:38:42.572Z,96108.69
2023-03-30T03:39:44.443Z,96221.94
2023-03-30T03:40:50.407Z,96053.81
2023-03-30T03:41:52.790Z,96179.19
2023-03-30T03:42:54.759Z,96005.94
2023-03-30T03:43:56.772Z,96154.50
2023-03-30T03:44:58.495Z,96113.91
2023-03-30T03:46:00.534Z,96158.78
2023-03-30T03:47:02.332Z,96124.22
2023-03-30T03:48:04.129Z,96197.09
2023-03-30T03:49:05.851Z,96151.97
2023-03-30T03:50:08.297Z,96259.34
2023-03-30T03:51:10.543Z,96208.06
2023-03-30T03:52:12.447Z,96127.47
2023-03-30T03:53:14.490Z,96212.44
2023-03-30T03:54:16.606Z,96179.25
2023-03-30T03:55:18.536Z,96170.97
2023-03-30T03:56:20.532Z,96163.34
2023-03-30T03:57:22.350Z,96250.88
2023-03-30T03:58:24.948Z,96160.63
2023-03-30T03:59:26.720Z,96040.50
2023-03-30T04:00:29.210Z,96163.03
2023-03-30T04:01:32.137Z,96285.72
2023-03-30T04:02:34.448Z,96042.38
2023-03-30T04:03:36.717Z,96250.88
2023-03-30T04:04:38.653Z,96163.03
2023-03-30T04:05:41.144Z,96201.22
2023-03-30T04:06:42.910Z,96199.31
2023-03-30T04:07:45.126Z,96169.41
2023-03-30T04:08:46.942Z,96277.44
2023-03-30T04:09:48.876Z,96247.88
2023-03-30T04:10:51.017Z,96026.88
2023-03-30T04:11:53.052Z,96159.13
2023-03-30T04:12:58.469Z,96060.94
2023-03-30T04:14:00.154Z,96023.47
2023-03-30T04:15:02.016Z,96011.97
2023-03-30T04:16:04.215Z,95959.31
2023-03-30T04:17:06.089Z,96003.53
2023-03-30T04:18:07.970Z,96116.63
2023-03-30T04:19:10.103Z,96244.38
2023-03-30T04:20:12.426Z,96142.88
2023-03-30T04:21:14.885Z,96075.66
2023-03-30T04:22:16.671Z,96094.00
2023-03-30T04:23:18.656Z,96272.47
2023-03-30T04:24:20.516Z,96260.16
2023-03-30T04:25:24.377Z,96172.88
2023-03-30T04:26:28.793Z,96205.78
2023-03-30T04:27:30.855Z,96176.53
2023-03-30T04:28:34.739Z,96278.97
2023-03-30T04:29:36.658Z,96157.38
2023-03-30T04:30:38.685Z,96293.03
2023-03-30T04:31:40.584Z,96081.97
2023-03-30T04:32:42.473Z,96018.38
2023-03-30T04:33:46.455Z,96118.09
2023-03-30T04:34:49.741Z,96275.31
2023-03-30T04:35:51.773Z,96251.34
2023-03-30T04:36:53.660Z,96007.66
2023-03-30T04:37:55.820Z,96188.44
2023-03-30T04:38:57.850Z,95991.00
2023-03-30T04:40:01.047Z,96155.56
2023-03-30T04:41:03.028Z,96289.53
2023-03-30T04:42:04.905Z,96024.34
2023-03-30T04:43:06.590Z,96042.63
2023-03-30T04:44:10.790Z,96181.31
2023-03-30T04:45:12.967Z,96189.88
2023-03-30T04:46:15.051Z,96089.94
2023-03-30T04:47:16.953Z,96279.88
2023-03-30T04:48:20.756Z,96151.25
2023-03-30T04:49:22.953Z,96138.56
2023-03-30T04:50:24.929Z,95993.47
2023-03-30T04:51:27.727Z,96218.91
2023-03-30T04:52:29.872Z,96058.00
2023-03-30T04:53:32.342Z,96222.59
2023-03-30T04:54:34.781Z,96307.81
2023-03-30T04:55:37.136Z,96135.28
2023-03-30T04:56:39.119Z,96227.75
2023-03-30T04:57:40.875Z,96273.41
2023-03-30T04:58:43.040Z,96291.63
2023-03-30T04:59:45.345Z,96287.75
2023-03-30T05:00:47.214Z,96281.50
2023-03-30T05:01:49.166Z,96277.31
2023-03-30T05:02:51.113Z,96266.75
2023-03-30T05:03:52.970Z,96289.97
2023-03-30T05:04:54.792Z,96274.97
2023-03-30T05:05:56.789Z,96284.84
2023-03-30T05:06:58.508Z,96287.47
2023-03-30T05:08:01.090Z,96276.88
2023-03-30T05:09:02.880Z,96128.59
2023-03-30T05:10:05.688Z,96284.28
2023-03-30T05:11:07.515Z,96286.69
2023-03-30T05:12:09.272Z,96253.97
2023-03-30T05:13:11.153Z,96295.75
2023-03-30T05:14:14.336Z,96113.13
2023-03-30T05:15:16.476Z,96131.97
2023-03-30T05:16:19.046Z,96220.25
2023-03-30T05:17:21.292Z,96221.03
2023-03-30T05:18:23.956Z,96225.41
2023-03-30T05:19:25.870Z,96106.53
2023-03-30T05:20:27.706Z,96216.22
2023-03-30T05:21:29.500Z,96281.19
2023-03-30T05:22:31.230Z,96248.44
2023-03-30T05:23:33.110Z,96288.53
2023-03-30T05:24:35.540Z,96276.44
2023-03-30T05:25:37.290Z,96156.94
2023-03-30T05:26:40.213Z,96286.69
2023-03-30T05:27:42.011Z,96257.50
2023-03-30T05:28:43.754Z,96193.53
2023-03-30T05:29:45.476Z,96255.03
2023-03-30T05:30:47.812Z,96287.66
2023-03-30T05:31:49.772Z,96154.31
2023-03-30T05:32:51.670Z,96193.31
2023-03-30T05:33:54.553Z,96246.22
2023-03-30T05:34:57.607Z,96204.13
2023-03-30T05:35:59.772Z,96280.84
2023-03-30T05:37:01.590Z,96095.59
2023-03-30T05:38:04.085Z,96228.59
2023-03-30T05:39:06.082Z,96197.44
2023-03-30T05:40:08.503Z,96274.75
2023-03-30T05:41:10.612Z,96226.41
2023-03-30T05:42:12.621Z,96136.91
2023-03-30T05:43:14.901Z,96233.72
2023-03-30T05:44:16.647Z,96263.91
2023-03-30T05:45:18.608Z,96276.16
2023-03-30T05:46:20.841Z,96232.50
2023-03-30T05:47:22.614Z,96206.19
2023-03-30T05:48:24.391Z,96274.84
2023-03-30T05:49:26.095Z,96120.13
2023-03-30T05:50:28.006Z,96274.31
2023-03-30T05:51:29.713Z,96235.09
2023-03-30T05:52:31.335Z,96292.97
2023-03-30T05:53:34.182Z,96289.69
2023-03-30T05:54:35.987Z,96281.25
2023-03-30T05:55:37.843Z,96303.72
2023-03-30T05:56:40.202Z,96227.50
2023-03-30T05:57:42.042Z,96228.84
2023-03-30T05:58:43.792Z,96241.72
2023-03-30T05:59:45.586Z,96283.50
2023-03-30T06:00:47.325Z,96276.66
2023-03-30T06:01:49.123Z,96306.16
2023-03-30T06:02:51.008Z,96251.50
2023-03-30T06:03:53.629Z,96303.91
2023-03-30T06:04:55.781Z,96306.63
2023-03-30T06:05:58.226Z,96289.00
2023-03-30T06:07:00.108Z,96184.44
2023-03-30T06:08:01.757Z,96232.06
2023-03-30T06:09:04.421Z,96306.84
2023-03-30T06:10:07.643Z,96309.69
2023-03-30T06:11:09.322Z,96280.38
2023-03-30T06:12:11.156Z,96215.50
2023-03-30T06:13:13.119Z,96166.16
2023-03-30T06:14:15.088Z,96238.41
2023-03-30T06:15:17.029Z,96252.47
2023-03-30T06:16:19.039Z,96276.41
2023-03-30T06:17:21.253Z,96310.59
2023-03-30T06:18:23.340Z,96312.94
2023-03-30T06:19:25.334Z,96284.97
2023-03-30T06:20:27.199Z,96115.72
2023-03-30T06:21:29.717Z,96290.97
2023-03-30T06:22:32.028Z,96302.53
2023-03-30T06:23:36.305Z,96297.66
2023-03-30T06:24:38.972Z,96251.25
2023-03-30T06:25:40.967Z,96287.69
2023-03-30T06:26:42.957Z,96259.66
2023-03-30T06:27:45.061Z,96318.88
2023-03-30T06:28:47.112Z,96311.75
2023-03-30T06:29:48.984Z,96216.66
2023-03-30T06:30:50.918Z,96267.03
2023-03-30T06:31:52.735Z,96315.97
2023-03-30T06:32:54.765Z,96306.47
2023-03-30T06:33:56.987Z,96281.97
2023-03-30T06:34:59.192Z,96319.59
2023-03-30T06:36:01.494Z,96266.66
2023-03-30T06:37:03.831Z,96279.59
2023-03-30T06:38:06.402Z,96262.00
2023-03-30T06:39:08.733Z,96246.88
2023-03-30T06:40:11.403Z,96305.41
2023-03-30T06:41:13.121Z,96315.00
2023-03-30T06:42:15.989Z,96318.03
2023-03-30T06:43:24.348Z,96177.50
2023-03-30T06:44:26.125Z,96315.44
2023-03-30T06:45:28.111Z,96133.25
2023-03-30T06:46:30.011Z,96261.88
2023-03-30T06:47:32.132Z,96315.09
2023-03-30T06:48:34.597Z,96200.25
2023-03-30T06:49:36.550Z,96314.91
2023-03-30T06:50:38.398Z,96310.69
2023-03-30T06:51:40.568Z,96262.28
2023-03-30T06:52:42.873Z,96287.81
2023-03-30T06:53:44.650Z,96030.38
2023-03-30T06:54:46.545Z,96220.91
2023-03-30T06:55:57.679Z,96132.84
2023-03-30T06:56:59.587Z,96264.88
2023-03-30T06:58:01.894Z,96295.47
2023-03-30T06:59:04.302Z,96328.59
2023-03-30T07:00:07.324Z,96309.88
2023-03-30T07:01:14.043Z,96325.94
2023-03-30T07:02:16.037Z,96331.97
2023-03-30T07:03:20.021Z,96295.88
2023-03-30T07:04:22.651Z,96274.25
2023-03-30T07:05:24.733Z,96160.66
2023-03-30T07:06:26.637Z,96321.28
2023-03-30T07:07:28.410Z,96263.59
2023-03-30T07:08:30.733Z,96319.09
2023-03-30T07:09:33.022Z,96302.81
2023-03-30T07:10:34.828Z,96253.47
2023-03-30T07:11:36.889Z,96312.41
2023-03-30T07:12:40.117Z,96294.91
2023-03-30T07:13:42.037Z,96302.16
2023-03-30T07:14:44.502Z,96127.88
2023-03-30T07:15:46.925Z,96193.91
2023-03-30T07:16:48.983Z,96319.06
2023-03-30T07:17:50.947Z,96164.41
2023-03-30T07:18:52.642Z,96297.38
2023-03-30T07:19:54.379Z,96317.97
2023-03-30T07:20:58.889Z,96324.97
2023-03-30T07:22:00.710Z,96327.22
2023-03-30T07:23:03.789Z,96148.41
2023-03-30T07:24:05.747Z,96289.00
2023-03-30T07:25:08.033Z,96322.84
2023-03-30T07:26:10.068Z,96301.91
2023-03-30T07:27:11.728Z,96307.16
2023-03-30T07:28:13.760Z,96220.50
2023-03-30T07:29:15.701Z,96322.78
2023-03-30T07:30:22.292Z,96190.91
2023-03-30T07:31:25.068Z,96311.53
2023-03-30T07:32:26.868Z,96315.16
2023-03-30T07:33:28.685Z,96187.13
2023-03-30T07:34:30.680Z,96290.16
2023-03-30T07:35:32.457Z,96245.41
2023-03-30T07:36:34.163Z,96308.91
2023-03-30T07:37:36.095Z,96254.16
2023-03-30T07:38:38.093Z,96328.78
2023-03-30T07:39:40.075Z,96306.56
2023-03-30T07:40:42.612Z,96107.00
2023-03-30T07:41:44.813Z,96309.44
2023-03-30T07:42:47.029Z,96277.16
2023-03-30T07:43:48.704Z,96250.22
2023-03-30T07:44:50.361Z,96296.50
2023-03-30T07:45:52.131Z,96315.78
2023-03-30T07:46:54.232Z,96327.19
2023-03-30T07:47:56.303Z,96277.25
2023-03-30T07:48:58.905Z,96320.31
2023-03-30T07:50:00.990Z,96230.44
2023-03-30T07:51:05.558Z,96318.59
2023-03-30T07:52:08.004Z,96309.94
2023-03-30T07:53:10.110Z,96326.91
2023-03-30T07:54:11.726Z,96293.47
2023-03-30T07:55:13.358Z,96295.56
2023-03-30T07:56:15.104Z,96312.59
2023-03-30T07:57:17.875Z,96310.97
2023-03-30T07:58:20.340Z,96328.06
2023-03-30T07:59:23.992Z,96325.19
2023-03-30T08:00:25.964Z,96326.09
2023-03-30T08:01:27.685Z,96340.63
2023-03-30T08:02:29.389Z,96287.06
2023-03-30T08:03:31.591Z,96307.13
2023-03-30T08:04:33.457Z,96324.59
2023-03-30T08:05:35.620Z,96321.31
2023-03-30T08:06:37.790Z,96315.22
2023-03-30T08:07:39.735Z,96301.56
2023-03-30T08:08:41.465Z,96272.41
2023-03-30T08:09:44.450Z,96312.69
2023-03-30T08:10:46.122Z,96292.28
2023-03-30T08:11:47.839Z,96311.19
2023-03-30T08:12:49.480Z,96306.69
2023-03-30T08:13:51.158Z,96293.16
2023-03-30T08:14:52.933Z,96295.19
2023-03-30T08:15:55.100Z,96281.97
2023-03-30T08:16:57.253Z,96301.06
2023-03-30T08:17:59.981Z,96311.44
2023-03-30T08:19:02.026Z,96291.38
2023-03-30T08:20:04.195Z,96301.06
2023-03-30T08:21:06.530Z,96307.72
2023-03-30T08:22:08.636Z,96309.09
2023-03-30T08:23:11.469Z,96306.03
2023-03-30T08:24:13.622Z,96306.47
2023-03-30T08:25:15.407Z,96308.78
2023-03-30T08:26:17.110Z,96280.81
2023-03-30T08:27:19.133Z,96308.47
2023-03-30T08:28:21.172Z,96288.78
2023-03-30T08:29:23.181Z,96284.91
2023-03-30T08:30:25.167Z,96288.94
2023-03-30T08:31:26.827Z,96269.03
2023-03-30T08:32:31.927Z,96303.28
2023-03-30T08:33:33.823Z,96276.56
2023-03-30T08:34:37.279Z,96306.72
2023-03-30T08:35:39.652Z,96296.00
2023-03-30T08:36:41.586Z,96282.19
2023-03-30T08:37:43.841Z,96284.59
2023-03-30T08:38:45.992Z,96306.16
2023-03-30T08:39:47.743Z,96304.25
2023-03-30T08:40:50.368Z,96181.09
2023-03-30T08:42:16.666Z,96305.63
2023-03-30T08:43:29.461Z,96304.22
2023-03-30T08:44:44.224Z,96154.06
2023-03-30T08:45:46.504Z,96291.94
2023-03-30T08:46:49.796Z,96299.25
2023-03-30T08:47:52.805Z,96304.38
2023-03-30T08:48:58.009Z,96175.34
2023-03-30T08:50:02.943Z,96288.66
2023-03-30T08:51:23.558Z,96170.53
2023-03-30T08:52:26.261Z,96251.81
2023-03-30T08:53:29.784Z,96276.06
2023-03-30T08:54:33.179Z,96282.13
2023-03-30T08:55:49.551Z,96287.41
2023-03-30T08:57:06.345Z,96292.25
2023-03-30T08:58:23.315Z,96284.66
2023-03-30T08:59:53.231Z,96284.53
2023-03-30T09:01:00.865Z,96247.19
2023-03-30T09:02:44.290Z,96284.16
2023-03-30T09:03:59.122Z,96297.69
2023-03-30T09:05:16.360Z,96274.50
2023-03-30T09:06:36.012Z,96277.84
2023-03-30T09:07:45.456Z,96285.91
2023-03-30T09:08:48.625Z,96284.28
2023-03-30T09:09:51.396Z,96270.00
2023-03-30T09:11:10.161Z,96256.94
2023-03-30T09:12:48.904Z,96276.59
2023-03-30T09:13:52.429Z,96145.94
2023-03-30T09:15:01.061Z,96243.84
2023-03-30T09:17:00.103Z,96266.31
2023-03-30T09:18:32.496Z,96256.28
2023-03-30T09:19:42.710Z,96229.19
2023-03-30T09:20:46.911Z,96120.84
2023-03-30T09:21:50.300Z,96260.75
2023-03-30T09:22:54.284Z,96253.81
2023-03-30T09:23:58.586Z,96139.69
2023-03-30T09:25:00.525Z,96258.78
2023-03-30T09:26:17.891Z,96229.09
2023-03-30T09:27:29.055Z,96247.03
2023-03-30T09:28:46.079Z,96242.56
2023-03-30T09:29:49.254Z,96194.19
2023-03-30T09:31:07.628Z,96225.28
2023-03-30T09:32:26.274Z,96267.75
2023-03-30T09:33:38.950Z,96248.00
2023-03-30T09:34:47.207Z,96228.91
2023-03-30T09:36:00.508Z,96248.09
2023-03-30T09:37:17.267Z,96160.34
2023-03-30T09:38:19.206Z,96230.81
2023-03-30T09:39:24.173Z,96087.31
2023-03-30T09:41:07.445Z,96233.75
2023-03-30T09:42:40.180Z,96234.44
2023-03-30T09:43:44.635Z,96189.72
2023-03-30T09:45:14.815Z,96220.75
2023-03-30T09:46:17.846Z,96227.47
2023-03-30T09:47:33.384Z,96220.19
2023-03-30T09:48:45.860Z,96193.16
2023-03-30T09:49:47.771Z,96233.09
2023-03-30T09:50:50.058Z,96210.97
2023-03-30T09:52:01.474Z,96205.41
2023-03-30T09:53:07.406Z,96210.56
2023-03-30T09:54:15.332Z,96195.25
2023-03-30T09:55:23.124Z,96172.38
2023-03-30T09:56:44.468Z,96217.22
2023-03-30T09:57:46.283Z,96217.97
2023-03-30T09:58:48.490Z,96225.31
2023-03-30T09:59:50.146Z,96232.50
2023-03-30T10:01:16.501Z,96172.13
2023-03-30T10:02:20.916Z,96212.56
2023-03-30T10:03:24.566Z,96189.00
2023-03-30T10:04:26.662Z,96234.09
2023-03-30T10:05:31.486Z,96152.56
2023-03-30T10:06:38.108Z,96207.31
2023-03-30T10:07:42.066Z,96216.88
2023-03-30T10:08:52.183Z,96179.28
2023-03-30T10:09:55.194Z,96195.59
2023-03-30T10:10:59.384Z,96185.81
2023-03-30T10:12:01.149Z,96107.84
2023-03-30T10:13:12.218Z,96051.31
2023-03-30T10:14:28.219Z,96212.00
2023-03-30T10:15:31.161Z,96195.53
2023-03-30T10:16:33.613Z,96199.94
2023-03-30T10:17:41.122Z,96207.69
2023-03-30T10:18:45.547Z,96086.09
2023-03-30T10:19:50.492Z,96202.13
2023-03-30T10:21:07.716Z,96129.28
2023-03-30T10:22:17.519Z,96110.97
2023-03-30T10:23:21.626Z,96199.88
2023-03-30T10:24:29.685Z,96197.66
2023-03-30T10:25:33.695Z,96193.88
2023-03-30T10:26:38.614Z,96186.47
2023-03-30T10:27:41.751Z,96195.56
2023-03-30T10:28:56.380Z,96207.78
2023-03-30T10:29:58.364Z,96165.78
2023-03-30T10:31:03.199Z,96013.09
2023-03-30T10:32:17.386Z,96192.81
2023-03-30T10:33:20.416Z,96168.34
2023-03-30T10:34:38.148Z,96123.75
2023-03-30T10:35:40.684Z,96157.72
2023-03-30T10:36:42.910Z,96185.78
2023-03-30T10:37:47.046Z,96186.56
2023-03-30T10:38:50.416Z,96164.34
2023-03-30T10:39:53.084Z,96174.28
2023-03-30T10:41:07.907Z,96037.44
2023-03-30T10:42:15.862Z,96173.75
2023-03-30T10:43:22.700Z,96036.19
2023-03-30T10:44:44.907Z,96179.00
2023-03-30T10:45:57.155Z,96165.28
2023-03-30T10:47:28.734Z,96174.63
2023-03-30T10:48:45.718Z,96175.84
2023-03-30T10:50:17.555Z,96030.25
2023-03-30T10:51:29.628Z,96170.69
2023-03-30T10:52:58.403Z,96073.22
2023-03-30T10:54:41.383Z,96166.59
2023-03-30T10:56:01.038Z,96156.69
2023-03-30T10:57:11.269Z,96144.38
2023-03-30T10:58:42.597Z,96138.00
2023-03-30T11:00:09.751Z,96156.06
2023-03-30T11:01:34.822Z,96024.97
2023-03-30T11:02:39.813Z,96176.53
2023-03-30T11:03:46.963Z,96121.03
2023-03-30T11:04:56.119Z,96110.53
2023-03-30T11:06:17.924Z,96149.25
2023-03-30T11:07:50.588Z,96134.91
2023-03-30T11:08:55.803Z,96108.91
2023-03-30T11:10:07.122Z,96131.44
2023-03-30T11:11:20.233Z,96121.69
2023-03-30T11:12:26.743Z,96139.19
2023-03-30T11:13:40.387Z,96133.16
2023-03-30T11:14:57.864Z,96094.44
2023-03-30T11:16:05.791Z,96112.13
2023-03-30T11:17:15.695Z,96098.31
2023-03-30T11:18:28.668Z,96114.78
2023-03-30T11:19:40.771Z,96127.53
2023-03-30T11:21:15.750Z,96111.66
2023-03-30T11:22:38.420Z,96024.50
2023-03-30T11:23:56.016Z,96125.63
2023-03-30T11:24:59.581Z,96123.31
2023-03-30T11:26:08.393Z,96107.47
2023-03-30T11:27:22.570Z,95976.31
2023-03-30T11:28:42.885Z,96114.13
2023-03-30T11:30:09.081Z,96016.88
2023-03-30T11:33:08.230Z,96102.53
2023-03-30T11:34:28.241Z,96097.91
2023-03-30T11:35:45.662Z,96111.25
2023-03-30T11:37:14.249Z,96099.06
2023-03-30T11:38:23.489Z,96078.00
2023-03-30T11:39:32.935Z,96025.59
2023-03-30T11:40:58.278Z,96069.34
2023-03-30T11:42:25.581Z,96099.84
2023-03-30T11:43:30.427Z,96098.81
2023-03-30T11:44:33.800Z,96066.19
2023-03-30T11:45:46.062Z,96085.75
2023-03-30T11:46:55.309Z,96003.41
2023-03-30T11:48:09.968Z,96071.41
2023-03-30T11:49:37.868Z,96088.69
2023-03-30T11:50:39.888Z,96049.59
2023-03-30T11:52:02.602Z,96073.19
2023-03-30T11:53:10.169Z,96081.69
2023-03-30T11:54:59.816Z,96060.50
2023-03-30T11:56:11.457Z,96009.78
2023-03-30T11:57:38.361Z,96082.00
2023-03-30T11:59:01.049Z,96045.66
2023-03-30T12:00:11.912Z,96008.34
2023-03-30T12:01:32.141Z,96078.25
2023-03-30T12:02:41.353Z,96051.53
2023-03-30T12:03:47.484Z,95950.31
2023-03-30T12:04:59.262Z,95987.94
2023-03-30T12:06:30.733Z,96015.06
2023-03-30T12:07:46.448Z,96029.31
2023-03-30T12:09:03.281Z,96041.41
2023-03-30T12:10:32.022Z,96038.75
2023-03-30T12:12:06.139Z,96036.13
2023-03-30T12:13:16.815Z,96029.06
2023-03-30T12:14:52.515Z,96032.44
2023-03-30T12:16:00.000Z,96030.16
2023-03-30T12:17:25.284Z,96017.84
2023-03-30T12:18:38.950Z,95992.69
2023-03-30T12:19:56.105Z,95983.72
2023-03-30T12:21:17.394Z,96034.06
2023-03-30T12:22:30.671Z,96027.91
2023-03-30T12:23:44.370Z,95999.97
2023-03-30T12:24:54.054Z,95899.25
2023-03-30T12:26:24.255Z,95991.19
2023-03-30T12:27:29.427Z,95984.22
2023-03-30T12:29:05.082Z,96035.50
2023-03-30T12:30:23.816Z,96012.94
2023-03-30T12:31:48.922Z,96007.66
2023-03-30T12:33:02.155Z,96020.41
2023-03-30T12:34:07.472Z,96009.97
2023-03-30T12:35:47.838Z,95985.75
2023-03-30T12:37:16.279Z,95951.19
2023-03-30T12:38:25.133Z,95981.44
2023-03-30T12:39:48.008Z,95978.50
2023-03-30T12:41:15.070Z,95966.66
2023-03-30T12:42:26.396Z,95855.03
2023-03-30T12:43:50.137Z,95946.88
2023-03-30T12:44:54.698Z,95886.00
2023-03-30T12:46:16.851Z,95942.44
2023-03-30T12:47:49.087Z,95915.16
2023-03-30T12:49:06.153Z,95996.56
2023-03-30T12:50:07.989Z,95996.09
2023-03-30T12:51:15.673Z,95982.97
2023-03-30T12:52:27.130Z,95970.56
2023-03-30T12:54:02.774Z,95963.63
2023-03-30T12:55:23.127Z,95930.88
2023-03-30T12:56:27.528Z,95975.97
2023-03-30T12:57:53.602Z,95931.81
2023-03-30T12:59:01.201Z,95953.59
2023-03-30T13:00:21.906Z,95954.81
2023-03-30T13:01:57.740Z,95966.22
2023-03-30T13:03:12.096Z,95953.09
2023-03-30T13:04:21.801Z,95949.44
2023-03-30T13:05:31.286Z,95943.38
2023-03-30T13:06:59.998Z,95887.69
2023-03-30T13:08:05.787Z,95871.25
2023-03-30T13:09:17.039Z,95950.06
2023-03-30T13:10:30.770Z,95937.72
2023-03-30T13:11:54.481Z,95934.63
2023-03-30T13:13:01.641Z,95887.84
2023-03-30T13:14:26.972Z,95932.53
2023-03-30T13:15:34.819Z,95955.19
2023-03-30T13:16:48.425Z,95909.66
2023-03-30T13:17:56.208Z,95944.84
2023-03-30T13:19:10.170Z,95935.59
2023-03-30T13:20:29.186Z,95951.84